Scroll down
FLIGHT INFORMATION
Virgin Atlantic Airways

VIR323

At Arrival Gate

EGCC
 KLAS
DATE: 2021-03-23
GATE:  -
GATE DEPARTURE: 10:10
TAKEOFF: 10:19
DATE: 2021-03-23
GATE: E3
LANDING: 20:14
GATE ARRIVAL: 20:21
FLIGHT DATA
Crew: 
Speed: 
939 kph
Altitude: 
38,018 ft
Stage Length: 
8,166.4 km
Block Time: 
10.1 hrs
Flight Time: 
9.9 hrs
Fuel Used: 
99,450 kg
Cleared Route: EGCC D254H D254M D254P EKLAD ASMIM WAL PENIL BABRA GIGTO UNDUX SOPAX RAMOX OGTUG BAGSO DOGAL 5520N 5630N 5740N 5650N JANJO YMT YLD RZN HON BFF LAR BCE KLAS
TRACK DATA
50,000 ft 1,000 kts
AIRCRAFT INFO AND CUMULATIVE STATS
Aircraft Type: 
B744
Registration: 
SELCAL: 
PSLR
MSN/LN: 
29406 / 1177
Total Flights: 
2
Total Block Time: 
20.2 hrs
Total Flight Time: 
19.8 hrs
Total Fuel Used: 
190,916 kg
DATALINK LOG | Newest first | Current as of: 2022-10-04 20:53:29
LABEL SEQUENCE CONTENT Dn/Up
QD234620:21 52.8▼ Dn
QC164120:14▼ Dn
GA4624GATE E3▲ Up
GR4614KLAS 20:22 MAAS 00 YP/UM 00/00 WCHR/S/C 00/00/00 HI-VAL NO▼ Dn
2U1920KLAS 152056Z 21009G23KT 10SM FEW065 SCT085 18/00 A2966 RMK AO2 PK WND 19029/2034 SLP030 T01830000 58041▲ Up
2S2049KLAS▼ Dn
QB220110:19▼ Dn
QA115110:10 272.2▼ Dn
A35444CLEARED TO KLAS VIA ASMIM UL975 WAL L10 PENIL M144 BAGSO DOGAL 55N020W 56N030W 57N040W 56N050W JANJO YMT YLD RZN HON BFF J157 LAR BCE LUXOR2. SQUAWK 2277.▲ Up
B35434EGCC KLAS VIR323 GVXLG L ▼ Dn
2U5006EGCC 151153Z 31510KT 9999 BKN029 08/01 Q1021 RMK ADVANCED INTERPOLATION▲ Up
2S5232EGCC▼ Dn
Q05030[LINK ACK]▲ Up
Q05030[LINK TEST]▼ Dn


AIRCRAFT HISTORY
FLIGHT DATE FLIGHT NO. ORIGIN DESTINATION CLEARED ROUTE BLOCK TIME FLIGHT TIME FUEL USED PILOT
2021-03-26VIR326KLAS EGKK KLAS LEELN TOMIS BATIS MEDOE STAAV TRALR NICLE SUNYY VERKN LARVE EKR KD66U KP84A ABR YQT YMO JOVIE HOIST 5650N 5640N 5530N 5420N MALOT GISTI NORLA MERLY DIDEL FONZU ELRIP OTMET SOKDU NEDUL ELDER TELTU HOLLY WILLO EGKK10 hrs9.9 hrs201,649 lbTom Landry
2021-03-23VIR323EGCC KLAS EGCC D254H D254M D254P EKLAD ASMIM WAL PENIL BABRA GIGTO UNDUX SOPAX RAMOX OGTUG BAGSO DOGAL 5520N 5630N 5740N 5650N JANJO YMT YLD RZN HON BFF LAR BCE KLAS10.1 hrs9.9 hrs219,250 lbTom Landry